createdAt,value
2022-08-10T00:00:38.234Z,50.60
2022-08-10T00:03:07.738Z,50.70
2022-08-10T00:05:43.864Z,50.80
2022-08-10T00:08:22.765Z,51.00
2022-08-10T00:10:56.125Z,51.20
2022-08-10T00:13:24.710Z,51.70
2022-08-10T00:15:54.911Z,51.90
2022-08-10T00:18:34.310Z,52.00
2022-08-10T00:21:05.445Z,52.20
2022-08-10T00:23:33.210Z,52.50
2022-08-10T00:26:00.639Z,52.70
2022-08-10T00:28:27.733Z,52.80
2022-08-10T00:30:54.657Z,52.90
2022-08-10T00:33:22.191Z,53.10
2022-08-10T00:35:49.257Z,53.20
2022-08-10T00:38:16.383Z,53.30
2022-08-10T00:40:43.429Z,53.50
2022-08-10T00:43:10.279Z,53.50
2022-08-10T00:45:37.210Z,53.70
2022-08-10T00:48:04.571Z,54.00
2022-08-10T00:50:31.884Z,54.20
2022-08-10T00:52:59.523Z,54.30
2022-08-10T00:55:26.613Z,54.30
2022-08-10T00:57:54.813Z,54.60
2022-08-10T01:00:24.044Z,54.50
2022-08-10T01:02:51.270Z,54.90
2022-08-10T01:05:20.471Z,55.10
2022-08-10T01:07:56.680Z,55.10
2022-08-10T01:10:32.858Z,55.10
2022-08-10T01:13:05.738Z,55.10
2022-08-10T01:15:38.240Z,55.20
2022-08-10T01:18:12.045Z,55.40
2022-08-10T01:20:47.687Z,55.40
2022-08-10T01:23:38.927Z,55.50
2022-08-10T01:26:30.645Z,55.60
2022-08-10T01:31:40.693Z,55.90
2022-08-10T01:34:14.809Z,56.00
2022-08-10T01:36:48.534Z,56.10
2022-08-10T01:39:30.621Z,56.30
2022-08-10T01:42:02.377Z,56.40
2022-08-10T01:44:45.065Z,56.50
2022-08-10T01:47:36.834Z,56.60
2022-08-10T01:50:25.680Z,56.60
2022-08-10T01:52:56.963Z,56.70
2022-08-10T01:55:26.029Z,56.70
2022-08-10T01:57:54.268Z,56.80
2022-08-10T02:00:21.594Z,56.90
2022-08-10T02:02:49.494Z,57.10
2022-08-10T02:05:17.610Z,57.20
2022-08-10T02:07:46.918Z,57.20
2022-08-10T02:10:19.257Z,57.40
2022-08-10T02:12:47.168Z,57.20
2022-08-10T02:15:19.346Z,57.20
2022-08-10T02:17:57.749Z,57.20
2022-08-10T02:20:33.746Z,57.50
2022-08-10T02:23:04.612Z,57.60
2022-08-10T02:25:41.439Z,57.80
2022-08-10T02:28:27.083Z,57.70
2022-08-10T02:31:18.614Z,57.80
2022-08-10T02:33:57.814Z,57.90
2022-08-10T02:36:29.511Z,58.00
2022-08-10T02:39:00.968Z,57.90
2022-08-10T02:45:01.110Z,58.10
2022-08-10T02:45:23.508Z,58.20
2022-08-10T02:47:58.615Z,58.20
2022-08-10T02:50:37.767Z,58.30
2022-08-10T02:53:56.240Z,58.40
2022-08-10T02:56:18.656Z,58.50
2022-08-10T02:58:48.180Z,58.60
2022-08-10T03:01:19.073Z,58.80
2022-08-10T03:03:51.938Z,59.00
2022-08-10T03:06:20.768Z,59.10
2022-08-10T03:08:48.846Z,59.40
2022-08-10T03:12:37.426Z,59.80
2022-08-10T03:14:09.784Z,60.10
2022-08-10T03:16:36.859Z,60.40
2022-08-10T03:19:04.924Z,60.80
2022-08-10T03:21:32.363Z,61.10
2022-08-10T03:24:02.767Z,61.20
2022-08-10T03:26:50.530Z,61.30
2022-08-10T03:29:19.295Z,61.50
2022-08-10T03:31:46.436Z,61.70
2022-08-10T03:34:22.274Z,61.80
2022-08-10T03:37:00.710Z,61.80
2022-08-10T03:39:27.638Z,62.00
2022-08-10T03:41:56.028Z,62.10
2022-08-10T03:44:28.533Z,62.30
2022-08-10T03:46:55.730Z,62.30
2022-08-10T03:49:23.206Z,62.50
2022-08-10T04:04:30.121Z,64.20
2022-08-10T04:06:59.151Z,64.30
2022-08-10T04:09:54.499Z,64.70
2022-08-10T04:12:17.129Z,64.90
2022-08-10T04:14:49.767Z,65.20
2022-08-10T04:18:04.262Z,65.40
2022-08-10T04:20:10.731Z,65.60
2022-08-10T04:22:39.814Z,65.70
2022-08-10T04:25:08.180Z,65.90
2022-08-10T04:27:35.013Z,66.00
2022-08-10T04:30:01.906Z,66.20
2022-08-10T04:32:31.602Z,66.30
2022-08-10T04:34:59.905Z,66.40
2022-08-10T04:37:27.913Z,66.40
2022-08-10T04:39:55.427Z,66.50
2022-08-10T04:42:22.460Z,66.40
2022-08-10T04:44:50.798Z,66.20
2022-08-10T04:48:00.715Z,66.10
2022-08-10T04:50:05.304Z,66.00
2022-08-10T04:52:32.295Z,65.70
2022-08-10T04:54:59.074Z,65.60
2022-08-10T04:57:25.777Z,65.30
2022-08-10T04:59:52.579Z,65.10
2022-08-10T05:02:30.798Z,64.60
2022-08-10T05:04:58.604Z,64.10
2022-08-10T05:07:25.619Z,63.50
2022-08-10T05:10:03.489Z,63.30
2022-08-10T05:12:36.525Z,63.00
2022-08-10T05:15:05.402Z,62.80
2022-08-10T05:17:32.181Z,62.70
2022-08-10T05:20:03.000Z,62.70
2022-08-10T05:22:33.569Z,62.70
2022-08-10T05:25:00.387Z,62.50
2022-08-10T05:27:27.118Z,62.20
2022-08-10T05:30:01.627Z,61.50
2022-08-10T05:32:29.712Z,60.80
2022-08-10T05:34:56.745Z,59.50
2022-08-10T05:38:12.019Z,58.70
2022-08-10T05:40:11.663Z,57.60
2022-08-10T05:42:38.794Z,56.60
2022-08-10T05:45:05.871Z,55.90
2022-08-10T05:48:54.415Z,55.20
2022-08-10T05:50:21.298Z,54.90
2022-08-10T05:52:48.309Z,54.30
2022-08-10T05:55:15.372Z,53.60
2022-08-10T05:57:44.867Z,53.20
2022-08-10T06:00:36.681Z,53.00
2022-08-10T06:03:03.829Z,52.60
2022-08-10T06:05:31.599Z,52.20
2022-08-10T06:08:06.178Z,52.10
2022-08-10T06:10:35.260Z,51.90
2022-08-10T06:13:26.862Z,51.80
2022-08-10T06:15:58.104Z,52.10
2022-08-10T06:18:25.333Z,52.30
2022-08-10T06:20:52.268Z,52.40
2022-08-10T06:23:19.350Z,52.40
2022-08-10T06:26:09.917Z,52.00
2022-08-10T06:28:35.174Z,51.50
2022-08-10T06:31:02.314Z,51.00
2022-08-10T06:33:31.710Z,50.70
2022-08-10T06:35:59.339Z,50.60
2022-08-10T06:38:29.919Z,50.10
2022-08-10T06:40:58.237Z,49.30
2022-08-10T06:43:25.873Z,48.30
2022-08-10T06:46:07.130Z,47.90
2022-08-10T06:48:43.815Z,47.60
2022-08-10T06:51:14.276Z,46.80
2022-08-10T06:53:52.929Z,45.00
2022-08-10T07:04:03.521Z,40.30
2022-08-10T07:06:30.857Z,40.30
2022-08-10T07:08:57.887Z,39.90
2022-08-10T07:11:25.429Z,39.20
2022-08-10T07:14:16.648Z,38.60
2022-08-10T07:16:42.699Z,38.50
2022-08-10T07:19:12.980Z,37.90
2022-08-10T07:21:41.399Z,37.30
2022-08-10T07:24:11.598Z,36.80
2022-08-10T07:26:39.600Z,36.50
2022-08-10T07:29:07.498Z,36.20
2022-08-10T07:31:57.874Z,35.70
2022-08-10T07:34:29.863Z,35.20
2022-08-10T07:37:01.693Z,35.00
2022-08-10T07:40:02.371Z,34.90
2022-08-10T07:42:18.563Z,34.70
2022-08-10T07:44:46.809Z,33.90
2022-08-10T07:47:53.987Z,33.30
2022-08-10T07:50:09.587Z,32.90
2022-08-10T07:52:38.190Z,32.00
2022-08-10T07:55:07.967Z,31.60
2022-08-10T07:57:40.261Z,31.10
2022-08-10T08:00:09.484Z,30.90
2022-08-10T08:02:46.258Z,30.40
2022-08-10T08:05:57.483Z,30.50
2022-08-10T08:08:03.787Z,30.20
2022-08-10T08:10:31.580Z,30.10
2022-08-10T08:12:59.938Z,30.00
2022-08-10T08:16:17.291Z,29.50
2022-08-10T08:18:19.421Z,29.30
2022-08-10T08:20:51.924Z,29.10
2022-08-10T08:24:07.661Z,29.10
2022-08-10T08:26:08.387Z,29.30
2022-08-10T08:28:36.611Z,29.10
2022-08-10T08:31:04.995Z,28.90
2022-08-10T08:33:41.801Z,28.50
2022-08-10T08:36:10.865Z,28.30
2022-08-10T08:38:38.638Z,28.20
2022-08-10T08:41:14.414Z,27.90
2022-08-10T08:44:17.153Z,27.50
2022-08-10T08:46:59.586Z,27.50
2022-08-10T08:50:07.520Z,27.20
2022-08-10T08:52:53.821Z,27.50
2022-08-10T08:56:03.013Z,27.10
2022-08-10T08:58:50.521Z,26.50
2022-08-10T09:02:00.726Z,26.60
2022-08-10T09:04:44.031Z,26.30
2022-08-10T09:08:01.864Z,25.80
2022-08-10T09:10:38.333Z,25.70
2022-08-10T09:13:19.619Z,25.70
2022-08-10T09:16:13.198Z,25.70
2022-08-10T09:19:08.209Z,25.40
2022-08-10T09:22:18.401Z,25.30
2022-08-10T09:25:00.772Z,25.50
2022-08-10T09:27:57.243Z,25.40
2022-08-10T09:30:36.951Z,24.90
2022-08-10T09:36:21.775Z,25.00
2022-08-10T09:36:45.774Z,25.20
2022-08-10T09:40:06.666Z,24.60
2022-08-10T09:42:49.731Z,24.40
2022-08-10T09:45:37.082Z,23.90
2022-08-10T09:48:13.992Z,23.20
2022-08-10T09:54:46.700Z,23.00
2022-08-10T09:57:44.487Z,23.30
2022-08-10T10:00:12.666Z,23.50
2022-08-10T10:02:45.463Z,23.10
2022-08-10T10:05:52.425Z,22.70
2022-08-10T10:08:25.470Z,22.60
2022-08-10T10:11:18.352Z,22.90
2022-08-10T10:14:04.400Z,23.10
2022-08-10T10:16:53.763Z,23.00
2022-08-10T10:19:20.525Z,23.50
2022-08-10T10:22:04.088Z,23.10
2022-08-10T10:24:47.687Z,23.10
2022-08-10T10:27:23.408Z,23.30
2022-08-10T10:30:03.170Z,22.80
2022-08-10T10:32:41.435Z,23.00
2022-08-10T10:35:17.136Z,22.80
2022-08-10T10:38:00.650Z,23.30
2022-08-10T10:40:32.762Z,23.60
2022-08-10T10:43:08.656Z,24.10
2022-08-10T10:45:54.369Z,23.10
2022-08-10T10:48:24.865Z,22.50
2022-08-10T10:51:15.309Z,23.10
2022-08-10T10:54:02.475Z,24.00
2022-08-10T10:56:48.061Z,24.60
2022-08-10T10:59:54.363Z,24.30
2022-08-10T11:02:09.191Z,24.10
2022-08-10T11:04:48.155Z,23.90
2022-08-10T11:07:14.864Z,23.60
2022-08-10T11:10:08.909Z,23.40
2022-08-10T11:12:46.836Z,23.40
2022-08-10T11:15:43.056Z,23.50
2022-08-10T11:18:18.622Z,23.50
2022-08-10T11:21:04.445Z,23.50
2022-08-10T11:23:39.413Z,23.70
2022-08-10T11:26:25.051Z,23.90
2022-08-10T11:29:07.700Z,24.30
2022-08-10T11:31:44.603Z,24.30
2022-08-10T11:34:49.335Z,24.10
2022-08-10T11:37:21.946Z,23.70
2022-08-10T11:39:55.980Z,23.30
2022-08-10T11:42:33.199Z,23.50
2022-08-10T11:45:10.681Z,23.50
2022-08-10T11:47:55.981Z,23.70
2022-08-10T11:50:22.767Z,23.70
2022-08-10T11:52:58.675Z,23.40
2022-08-10T11:55:33.513Z,23.40
2022-08-10T11:58:30.283Z,23.40
2022-08-10T12:00:59.435Z,23.00
2022-08-10T12:03:28.489Z,22.90
2022-08-10T12:05:58.772Z,22.70
2022-08-10T12:10:05.375Z,22.60
2022-08-10T12:11:23.744Z,22.80
2022-08-10T12:14:20.711Z,22.70
2022-08-10T12:16:50.166Z,22.70
2022-08-10T12:19:31.313Z,22.90
2022-08-10T12:22:21.218Z,22.50
2022-08-10T12:24:47.962Z,21.90
2022-08-10T12:27:33.608Z,21.00
2022-08-10T12:30:07.440Z,21.40
2022-08-10T12:32:37.472Z,22.10
2022-08-10T12:35:12.277Z,22.60
2022-08-10T12:38:00.537Z,22.70
2022-08-10T12:40:36.915Z,22.70
2022-08-10T12:44:07.774Z,22.60
2022-08-10T12:46:06.996Z,22.50
2022-08-10T12:48:41.683Z,22.70
2022-08-10T12:51:13.434Z,22.80
2022-08-10T12:53:40.207Z,23.00
2022-08-10T12:56:07.203Z,23.00
2022-08-10T12:59:00.366Z,23.00
2022-08-10T13:01:24.408Z,22.30
2022-08-10T13:04:20.734Z,22.10
2022-08-10T13:06:41.801Z,22.60
2022-08-10T13:09:08.731Z,22.90
2022-08-10T13:12:38.798Z,23.20
2022-08-10T13:14:54.327Z,23.20
2022-08-10T13:17:38.984Z,23.30
2022-08-10T13:20:21.011Z,23.50
2022-08-10T13:22:50.697Z,23.10
2022-08-10T13:25:28.107Z,23.10
2022-08-10T13:28:35.317Z,23.50
2022-08-10T13:30:51.121Z,23.50
2022-08-10T13:34:40.352Z,23.40
2022-08-10T13:36:06.700Z,23.20
2022-08-10T13:38:34.228Z,23.10
2022-08-10T13:41:01.419Z,22.80
2022-08-10T13:43:28.238Z,22.90
2022-08-10T13:45:55.699Z,22.80
2022-08-10T13:48:23.000Z,22.50
2022-08-10T13:50:51.576Z,22.50
2022-08-10T13:53:19.582Z,22.50
2022-08-10T13:55:55.294Z,22.40
2022-08-10T13:58:24.872Z,22.20
2022-08-10T14:00:51.995Z,22.20
2022-08-10T14:03:18.875Z,22.30
2022-08-10T14:05:56.207Z,22.40
2022-08-10T14:08:29.311Z,22.60
2022-08-10T14:11:09.043Z,22.70
2022-08-10T14:13:42.019Z,22.80
2022-08-10T14:16:10.926Z,23.10
2022-08-10T14:18:38.638Z,23.20
2022-08-10T14:21:05.774Z,23.10
2022-08-10T14:23:38.862Z,22.60
2022-08-10T14:26:09.150Z,23.00
2022-08-10T14:28:36.402Z,23.30
2022-08-10T14:31:05.596Z,23.50
2022-08-10T14:33:34.199Z,23.50
2022-08-10T14:36:22.200Z,23.60
2022-08-10T14:38:53.172Z,23.50
2022-08-10T14:42:02.917Z,23.40
2022-08-10T14:44:12.161Z,23.20
2022-08-10T14:46:43.446Z,23.20
2022-08-10T14:49:25.576Z,23.20
2022-08-10T14:51:59.463Z,23.20
2022-08-10T14:54:29.510Z,23.10
2022-08-10T14:57:11.192Z,23.00
2022-08-10T15:00:21.016Z,23.30
2022-08-10T15:02:38.373Z,23.70
2022-08-10T15:05:09.192Z,23.50
2022-08-10T15:07:37.219Z,23.40
2022-08-10T15:10:08.019Z,23.30
2022-08-10T15:12:36.113Z,23.10
2022-08-10T15:15:04.239Z,23.10
2022-08-10T15:17:37.222Z,23.20
2022-08-10T15:20:13.520Z,23.30
2022-08-10T15:22:45.756Z,23.20
2022-08-10T15:25:19.300Z,23.50
2022-08-10T15:27:54.786Z,23.70
2022-08-10T15:30:31.599Z,23.70
2022-08-10T15:33:21.611Z,23.80
2022-08-10T15:36:25.806Z,23.80
2022-08-10T15:38:59.876Z,23.90
2022-08-10T15:41:57.553Z,23.50
2022-08-10T15:44:22.183Z,24.20
2022-08-10T15:46:50.061Z,25.00
2022-08-10T15:49:25.029Z,25.70
2022-08-10T15:51:56.391Z,26.50
2022-08-10T15:54:33.206Z,26.20
2022-08-10T15:57:06.825Z,26.10
2022-08-10T15:59:40.898Z,26.50
2022-08-10T16:02:16.458Z,26.20
2022-08-10T16:04:58.131Z,26.50
2022-08-10T16:07:46.223Z,27.00
2022-08-10T16:10:25.346Z,26.70
2022-08-10T16:12:59.910Z,26.70
2022-08-10T16:15:28.464Z,27.30
2022-08-10T16:17:57.158Z,27.70
2022-08-10T16:20:28.491Z,27.20
2022-08-10T16:22:59.539Z,27.40
2022-08-10T16:25:48.343Z,27.90
2022-08-10T16:28:23.351Z,27.50
2022-08-10T16:30:53.447Z,27.70
2022-08-10T16:33:22.946Z,27.90
2022-08-10T16:35:51.527Z,27.80
2022-08-10T16:38:19.135Z,27.70
2022-08-10T16:40:46.463Z,27.90
2022-08-10T16:43:14.538Z,28.30
2022-08-10T16:45:54.914Z,28.40
2022-08-10T16:48:49.137Z,28.60
2022-08-10T16:51:09.961Z,28.00
2022-08-10T16:53:43.359Z,28.70
2022-08-10T16:56:14.901Z,28.70
2022-08-10T16:58:44.376Z,28.80
2022-08-10T17:01:16.076Z,28.80
2022-08-10T17:04:07.340Z,28.10
2022-08-10T17:06:33.430Z,28.70
2022-08-10T17:09:01.467Z,29.20
2022-08-10T17:11:29.943Z,30.10
2022-08-10T17:14:01.810Z,30.60
2022-08-10T17:16:45.770Z,30.60
2022-08-10T17:19:24.529Z,30.20
2022-08-10T17:21:54.640Z,30.50
2022-08-10T17:24:24.195Z,29.90
2022-08-10T17:26:51.225Z,29.50
2022-08-10T17:29:58.644Z,30.00
2022-08-10T17:32:28.080Z,30.70
2022-08-10T17:35:01.894Z,30.70
2022-08-10T17:37:31.754Z,30.40
2022-08-10T17:40:02.047Z,30.10
2022-08-10T17:42:29.122Z,30.60
2022-08-10T17:44:56.748Z,30.70
2022-08-10T17:47:27.205Z,30.50
2022-08-10T17:49:57.928Z,30.40
2022-08-10T17:52:26.031Z,30.40
2022-08-10T17:55:06.779Z,30.40
2022-08-10T17:57:36.195Z,30.80
2022-08-10T18:00:04.646Z,30.80
2022-08-10T18:02:34.726Z,31.40
2022-08-10T18:05:02.841Z,31.30
2022-08-10T18:07:31.589Z,31.30
2022-08-10T18:09:59.074Z,31.00
2022-08-10T18:12:33.972Z,31.60
2022-08-10T18:15:08.508Z,31.70
2022-08-10T18:17:41.193Z,31.40
2022-08-10T18:20:09.010Z,31.40
2022-08-10T18:22:42.802Z,31.70
2022-08-10T18:25:15.964Z,31.90
2022-08-10T18:28:01.395Z,31.70
2022-08-10T18:30:36.618Z,32.30
2022-08-10T18:33:04.533Z,32.70
2022-08-10T18:35:34.262Z,32.70
2022-08-10T18:38:02.041Z,32.50
2022-08-10T18:40:35.952Z,33.10
2022-08-10T18:43:07.365Z,33.30
2022-08-10T18:45:42.269Z,33.30
2022-08-10T18:48:17.427Z,33.20
2022-08-10T18:50:47.485Z,33.70
2022-08-10T18:53:18.496Z,33.30
2022-08-10T18:56:09.809Z,33.00
2022-08-10T18:58:38.971Z,33.40
2022-08-10T19:01:14.138Z,33.60
2022-08-10T19:03:56.586Z,33.80
2022-08-10T19:07:01.902Z,34.20
2022-08-10T19:09:47.586Z,34.00
2022-08-10T19:12:32.087Z,33.90
2022-08-10T19:15:18.061Z,34.00
2022-08-10T19:18:03.499Z,33.80
2022-08-10T19:20:39.363Z,34.10
2022-08-10T19:23:15.254Z,34.30
2022-08-10T19:26:37.831Z,34.50
2022-08-10T19:28:54.144Z,34.70
2022-08-10T19:31:24.044Z,34.60
2022-08-10T19:34:17.076Z,34.30
2022-08-10T19:37:02.840Z,34.50
2022-08-10T19:39:50.793Z,34.80
2022-08-10T19:42:31.187Z,34.90
2022-08-10T19:45:03.988Z,34.90
2022-08-10T19:47:34.012Z,34.90
2022-08-10T19:50:06.796Z,35.10
2022-08-10T19:52:49.346Z,34.80
2022-08-10T19:55:18.949Z,35.00
2022-08-10T19:58:01.291Z,35.50
2022-08-10T20:00:37.377Z,35.30
2022-08-10T20:03:18.713Z,35.70
2022-08-10T20:06:18.520Z,34.90
2022-08-10T20:09:06.788Z,35.70
2022-08-10T20:11:45.862Z,36.20
2022-08-10T20:14:22.054Z,36.30
2022-08-10T20:16:50.958Z,36.80
2022-08-10T20:19:53.418Z,36.90
2022-08-10T20:22:17.235Z,37.20
2022-08-10T20:24:52.738Z,37.50
2022-08-10T20:27:57.855Z,37.50
2022-08-10T20:30:17.452Z,37.60
2022-08-10T20:32:50.134Z,37.90
2022-08-10T20:35:23.047Z,38.10
2022-08-10T20:38:03.843Z,38.30
2022-08-10T20:40:34.605Z,37.90
2022-08-10T20:43:07.730Z,37.30
2022-08-10T20:46:06.862Z,36.90
2022-08-10T20:48:38.091Z,36.90
2022-08-10T20:51:58.016Z,36.30
2022-08-10T20:54:15.892Z,36.10
2022-08-10T20:56:48.340Z,36.50
2022-08-10T21:00:04.233Z,36.60
2022-08-10T21:02:29.356Z,36.30
2022-08-10T21:04:56.226Z,36.70
2022-08-10T21:07:50.588Z,36.90
2022-08-10T21:10:18.818Z,36.70
2022-08-10T21:12:53.237Z,36.70
2022-08-10T21:15:41.717Z,36.80
2022-08-10T21:18:29.440Z,36.80
2022-08-10T21:20:56.363Z,37.20
2022-08-10T21:26:18.021Z,37.80
2022-08-10T21:29:01.169Z,37.60
2022-08-10T21:31:36.831Z,37.80
2022-08-10T21:34:12.440Z,38.40
2022-08-10T21:37:11.513Z,38.10
2022-08-10T21:40:02.025Z,38.20
2022-08-10T21:43:00.967Z,38.40
2022-08-10T21:46:28.470Z,38.50
2022-08-10T21:52:28.034Z,38.80
2022-08-10T21:55:57.791Z,39.00
2022-08-10T21:58:53.387Z,39.40
2022-08-10T22:01:45.466Z,39.50
2022-08-10T22:04:38.157Z,39.60
2022-08-10T22:07:26.883Z,39.70
2022-08-10T22:10:14.154Z,39.80
2022-08-10T22:13:03.965Z,39.80
2022-08-10T22:16:05.459Z,40.20
2022-08-10T22:19:02.889Z,40.30
2022-08-10T22:22:27.228Z,40.30
2022-08-10T22:25:40.700Z,40.30
2022-08-10T22:28:33.090Z,40.40
2022-08-10T22:31:24.650Z,37.50
2022-08-10T22:31:27.232Z,38.80
2022-08-10T22:31:32.118Z,40.40
2022-08-10T22:34:42.354Z,40.50
2022-08-10T22:37:30.890Z,40.50
2022-08-10T22:40:22.562Z,40.50
2022-08-10T22:43:12.101Z,40.30
2022-08-10T22:46:03.833Z,40.50
2022-08-10T22:48:50.768Z,40.60
2022-08-10T22:51:22.719Z,40.40
2022-08-10T22:54:11.415Z,40.60
2022-08-10T22:57:17.121Z,40.30
2022-08-10T22:59:43.879Z,40.50
2022-08-10T23:02:11.739Z,40.60
2022-08-10T23:04:45.288Z,40.60
2022-08-10T23:07:17.919Z,40.00
2022-08-10T23:09:51.928Z,39.90
2022-08-10T23:12:22.971Z,40.10
2022-08-10T23:14:59.978Z,40.10
2022-08-10T23:18:01.499Z,40.00
2022-08-10T23:20:29.975Z,40.10
2022-08-10T23:23:02.757Z,40.10
2022-08-10T23:25:38.782Z,39.90
2022-08-10T23:28:12.392Z,40.10
2022-08-10T23:30:43.460Z,40.30
2022-08-10T23:33:17.312Z,40.10
2022-08-10T23:36:33.829Z,40.20
2022-08-10T23:39:23.856Z,40.40
2022-08-10T23:41:40.789Z,40.30
2022-08-10T23:44:08.083Z,40.50
2022-08-10T23:46:39.853Z,40.40
2022-08-10T23:49:07.662Z,40.00
2022-08-10T23:51:38.924Z,40.30
2022-08-10T23:54:23.379Z,40.60
2022-08-10T23:56:56.612Z,40.30
2022-08-10T23:59:31.101Z,40.40
